METAR Formatted Surface Weather Observation
Issued by NWS

Home | Current Version | Previous Version | Text Only | Print | Product List | Glossary On
Versions: 1 2 3 4 5 6 7 8 9 10 11 12 13 14 15 16 17 18
000
SAUS46 KSGX 031252
MTRSAN
METAR KSAN 031251Z 36004KT 10SM OVC013 21/16 A2997 RMK AO2 SLP147
T02060161 $



USA.gov is the U.S. government's official web portal to all federal, state and local government web resources and services.